TimeCET,TemperatureF,Dew PointF,Humidity,Sea Level PressureIn,VisibilityMPH,Wind Direction,Wind SpeedMPH,Gust SpeedMPH,PrecipitationIn,Events,Conditions,WindDirDegrees,DateUTC
12:16 AM,39.2,33.8,81,29.92,6.2,South,18.4,-,N/A,Rain,Light Rain,190,2013-01-14 23:16:00
12:45 AM,39.2,35.6,87,29.92,6.2,SSW,23.0,-,N/A,Rain,Light Rain,200,2013-01-14 23:45:00
1:00 AM,39,35,81,29.94,12,SSW,22.4,,,Rain,Light Rain,200,2013-01-15 00:00:00
1:45 AM,39.2,33.8,81,29.89,6.2,SSE,19.6,-,N/A,Rain,Light Rain,160,2013-01-15 00:45:00
2:45 AM,39.2,33.8,81,29.92,6.2,South,17.3,-,N/A,Rain,Light Rain,170,2013-01-15 01:45:00
3:45 AM,37.4,33.8,87,29.92,6.2,SSW,8.1,-,N/A,Rain,Light Rain,210,2013-01-15 02:45:00
4:45 AM,37.4,35.6,93,29.92,-9999.0,SSW,10.4,-,N/A,,Clear,200,2013-01-15 03:45:00
5:15 AM,39.2,35.6,87,29.92,-9999.0,SSW,10.4,-,N/A,,Clear,200,2013-01-15 04:15:00
5:45 AM,39.2,37.4,93,29.92,-9999.0,South,10.4,-,N/A,,Clear,190,2013-01-15 04:45:00
6:15 AM,37.4,35.6,93,29.92,-9999.0,SSE,6.9,-,N/A,,Clear,160,2013-01-15 05:15:00
6:45 AM,37.4,37.4,100,29.92,4.3,SSE,4.6,-,N/A,Rain,Light Rain,160,2013-01-15 05:45:00
7:00 AM,38,36,92,29.94,4,SSE,4.5,,,Rain,Light Rain,160,2013-01-15 06:00:00
7:15 AM,37.4,37.4,100,29.92,2.8,SSE,4.6,-,N/A,,Mostly Cloudy,160,2013-01-15 06:15:00
7:45 AM,37.4,35.6,93,29.92,2.8,South,5.8,-,N/A,,Overcast,170,2013-01-15 06:45:00
8:15 AM,37.4,37.4,100,29.92,3.1,SE,5.8,-,N/A,,Mostly Cloudy,130,2013-01-15 07:15:00
8:45 AM,39.2,35.6,87,29.92,4.3,SE,6.9,-,N/A,,Mostly Cloudy,130,2013-01-15 07:45:00
9:15 AM,39.2,37.4,93,29.92,5.6,South,5.8,-,N/A,,Mostly Cloudy,170,2013-01-15 08:15:00
9:45 AM,39.2,37.4,93,29.92,6.2,SE,5.8,-,N/A,,Mostly Cloudy,130,2013-01-15 08:45:00
10:15 AM,41.0,37.4,87,29.92,6.2,SSE,10.4,-,N/A,,Scattered Clouds,150,2013-01-15 09:15:00
10:45 AM,42.8,39.2,87,29.92,-9999.0,SE,8.1,-,N/A,,Clear,140,2013-01-15 09:45:00
11:15 AM,42.8,39.2,87,29.89,-9999.0,SE,11.5,-,N/A,,Clear,140,2013-01-15 10:15:00
11:45 AM,44.6,39.2,81,29.89,-9999.0,SE,10.4,-,N/A,,Clear,140,2013-01-15 10:45:00
12:15 PM,44.6,39.2,81,29.89,6.2,SSE,10.4,-,N/A,,Scattered Clouds,150,2013-01-15 11:15:00
12:45 PM,44.6,39.2,81,29.86,-9999.0,SE,9.2,-,N/A,,Clear,140,2013-01-15 11:45:00
1:00 PM,44,39,78,29.86,11,SE,8.9,,,,Partly Cloudy,140,2013-01-15 12:00:00
1:15 PM,44.6,39.2,81,29.86,-9999.0,SE,11.5,-,N/A,,Clear,140,2013-01-15 12:15:00
1:45 PM,44.6,39.2,81,29.86,-9999.0,SE,11.5,-,N/A,,Clear,140,2013-01-15 12:45:00
2:15 PM,46.4,41.0,81,29.86,-9999.0,SSE,11.5,-,N/A,,Clear,150,2013-01-15 13:15:00
2:45 PM,44.6,41.0,87,29.86,6.2,SE,9.2,-,N/A,,Mostly Cloudy,140,2013-01-15 13:45:00
3:15 PM,44.6,41.0,87,29.83,6.2,SE,3.5,-,N/A,,Mostly Cloudy,130,2013-01-15 14:15:00
3:45 PM,42.8,41.0,93,29.83,-9999.0,ENE,2.3,-,N/A,,Clear,60,2013-01-15 14:45:00
4:15 PM,42.8,39.2,87,29.83,5.0,ENE,3.5,-,N/A,,Mostly Cloudy,60,2013-01-15 15:15:00
4:45 PM,41.0,39.2,93,29.83,4.3,ENE,5.8,-,N/A,,Mostly Cloudy,70,2013-01-15 15:45:00
5:15 PM,41.0,39.2,93,29.83,6.2,NE,4.6,-,N/A,,Mostly Cloudy,50,2013-01-15 16:15:00
5:45 PM,39.2,39.2,100,29.83,6.2,ENE,4.6,-,N/A,,Overcast,70,2013-01-15 16:45:00
6:15 PM,39.2,39.2,100,29.80,-9999.0,East,5.8,-,N/A,,Clear,90,2013-01-15 17:15:00
6:45 PM,39.2,39.2,100,29.80,6.2,ENE,3.5,-,N/A,,Overcast,70,2013-01-15 17:45:00
7:00 PM,40,39,94,29.81,9,ENE,2.2,,,,Partly Cloudy,70,2013-01-15 18:00:00
7:15 PM,41.0,39.2,93,29.80,6.2,ESE,5.8,-,N/A,,Overcast,120,2013-01-15 18:15:00
7:45 PM,41.0,39.2,93,29.80,6.2,ESE,6.9,-,N/A,,Overcast,120,2013-01-15 18:45:00
8:15 PM,41.0,39.2,93,29.77,-9999.0,East,5.8,-,N/A,,Clear,90,2013-01-15 19:15:00
8:45 PM,41.0,39.2,93,29.77,-9999.0,East,6.9,-,N/A,,Clear,80,2013-01-15 19:45:00
9:27 PM,41.0,39.2,93,29.77,6.2,East,8.1,-,N/A,Rain,Light Rain,100,2013-01-15 20:27:00
9:45 PM,42.8,41.0,93,29.74,6.2,ESE,10.4,-,N/A,Rain,Light Rain,110,2013-01-15 20:45:00
10:45 PM,42.8,42.8,100,29.71,3.7,SE,11.5,-,N/A,Rain,Light Rain,140,2013-01-15 21:45:00
11:45 PM,42.8,41.0,93,29.68,2.5,SE,12.7,-,N/A,Rain,Rain,140,2013-01-15 22:45:00